Hillsborough, California
Current Conditions -  °F | °C
As of 10:56 PM on Wednesday 17 Dec 2014 (Local Time) from KSFO Reporting Station
Light Rain Light Rain  
Wind Chill: 53°   Ceiling: 2200
Heat Index: 53°   Visibility: 6mi
Dew Point: 51°   Wind: 15mph
Humidity: 93%   Direction: 110°ESE
Pressure: 30.06"   Gusts: NA
Location:  37.58°N, 122.35°W
Report Text: KSFO 180656Z 11013KT 6SM -RA BR FEW009 SCT016 OVC022 12/11 A3006 RMK AO2 SLP179 P0005 T01170106
Loading
Personal Weather Stations






























Interactive Weather Map New forecast layout! Learn more

10-Day Weather Forecast

Advertisements
Track Severe Weather on mobile